createdAt,value
2022-11-30T00:01:39.387Z,3.22
2022-11-30T00:07:09.168Z,3.40
2022-11-30T00:18:11.246Z,3.40
2022-11-30T00:23:41.997Z,3.97
2022-11-30T00:34:40.273Z,3.80
2022-11-30T00:40:10.347Z,4.20
2022-11-30T00:45:42.152Z,3.45
2022-11-30T00:51:13.008Z,3.50
2022-11-30T00:56:41.473Z,3.47
2022-11-30T01:02:12.273Z,3.30
2022-11-30T01:07:41.354Z,3.55
2022-11-30T01:13:11.828Z,2.92
2022-11-30T01:18:41.739Z,3.75
2022-11-30T01:24:10.882Z,3.05
2022-11-30T01:29:39.620Z,3.22
2022-11-30T01:35:10.645Z,2.97
2022-11-30T01:40:39.328Z,2.55
2022-11-30T01:46:27.230Z,3.70
2022-11-30T01:52:03.872Z,3.42
2022-11-30T01:57:37.223Z,3.15
2022-11-30T02:03:11.606Z,3.38
2022-11-30T02:08:41.980Z,2.92
2022-11-30T02:14:28.674Z,3.10
2022-11-30T02:20:16.964Z,3.03
2022-11-30T02:26:03.466Z,3.65
2022-11-30T02:31:38.579Z,2.50
2022-11-30T02:37:10.513Z,2.97
2022-11-30T02:42:39.420Z,2.70
2022-11-30T02:48:11.767Z,2.80
2022-11-30T02:53:40.714Z,2.83
2022-11-30T02:59:09.742Z,2.40
2022-11-30T03:04:39.994Z,2.93
2022-11-30T03:10:10.168Z,3.72
2022-11-30T03:15:39.751Z,3.60
2022-11-30T03:21:11.870Z,3.13
2022-11-30T03:26:40.952Z,2.92
2022-11-30T03:32:09.491Z,2.35
2022-11-30T03:37:40.369Z,2.70
2022-11-30T03:43:09.561Z,3.10
2022-11-30T03:48:38.626Z,3.08
2022-11-30T03:54:10.044Z,3.45
2022-11-30T03:59:38.650Z,3.00
2022-11-30T04:05:08.201Z,2.40
2022-11-30T04:10:39.146Z,2.97
2022-11-30T04:16:09.485Z,3.05
2022-11-30T04:21:38.736Z,2.78
2022-11-30T04:27:09.126Z,2.90
2022-11-30T04:32:37.902Z,3.00
2022-11-30T04:38:06.664Z,3.33
2022-11-30T04:43:37.256Z,2.05
2022-11-30T04:49:06.485Z,2.97
2022-11-30T04:54:35.564Z,3.15
2022-11-30T05:00:08.236Z,3.78
2022-11-30T05:05:37.379Z,3.13
2022-11-30T05:11:06.816Z,3.22
2022-11-30T05:16:36.967Z,3.33
2022-11-30T05:22:06.177Z,3.00
2022-11-30T05:27:35.408Z,3.70
2022-11-30T05:38:34.272Z,3.43
2022-11-30T05:44:03.759Z,2.83
2022-11-30T05:49:34.030Z,3.70
2022-11-30T05:55:02.495Z,3.55
2022-11-30T06:00:31.983Z,3.90
2022-11-30T06:06:02.120Z,3.60
2022-11-30T06:11:30.537Z,3.00
2022-11-30T06:16:59.978Z,3.50
2022-11-30T06:22:29.938Z,2.97
2022-11-30T06:27:58.805Z,3.75
2022-11-30T06:33:28.219Z,3.43
2022-11-30T06:38:59.347Z,3.50
2022-11-30T06:44:28.818Z,3.72
2022-11-30T06:49:57.972Z,3.37
2022-11-30T06:55:28.286Z,3.58
2022-11-30T07:00:57.581Z,4.20
2022-11-30T07:06:27.206Z,2.92
2022-11-30T07:17:26.668Z,4.25
2022-11-30T07:22:56.692Z,3.67
2022-11-30T13:55:54.102Z,5.55
2022-11-30T14:01:29.805Z,3.38
2022-11-30T14:06:59.443Z,4.65
2022-11-30T14:12:49.152Z,4.95
2022-11-30T14:18:25.195Z,4.03
2022-11-30T14:23:58.797Z,5.05
2022-11-30T14:29:34.035Z,5.20
2022-11-30T14:35:09.551Z,5.05
2022-11-30T14:40:38.072Z,3.75
2022-11-30T14:46:18.720Z,4.97
2022-11-30T14:51:50.629Z,5.78
2022-11-30T14:57:28.219Z,4.88
2022-11-30T15:02:58.670Z,3.88
2022-11-30T15:08:33.829Z,4.10
2022-11-30T15:14:09.925Z,4.47
2022-11-30T15:19:39.538Z,4.90
2022-11-30T15:25:13.588Z,5.03
2022-11-30T15:30:46.449Z,5.07
2022-11-30T15:36:32.402Z,5.30
2022-11-30T15:42:04.101Z,5.72
2022-11-30T15:47:36.822Z,5.88
2022-11-30T15:53:25.444Z,5.45
2022-11-30T15:59:03.072Z,4.85
2022-11-30T16:05:19.740Z,6.20
2022-11-30T23:09:31.866Z,3.45
2022-11-30T23:15:00.459Z,4.30
2022-11-30T23:20:29.581Z,2.78
2022-11-30T23:26:09.668Z,3.40
2022-11-30T23:31:40.298Z,3.10
2022-11-30T23:37:09.823Z,2.97
2022-11-30T23:42:40.028Z,2.97
2022-11-30T23:53:39.814Z,3.20
2022-11-30T23:59:09.732Z,3.05
